Time;durP1;ratioP1;P1;durP2;ratioP2;P2;SDS_P1;SDS_P2;PMS_P1;PMS_P2;Temp;Humidity;BMP_temperature;BMP_pressure;BME280_temperature;BME280_humidity;BME280_pressure;Samples;Min_cycle;Max_cycle;Signal;HPM_P1;HPM_P2
2022/07/15 00:01:46;;;;;;;8.18;2.55;;;;;;;21.16;nan;95302.97;5066740;28;20133;-87
2022/07/15 00:04:12;;;;;;;12.07;2.80;;;;;;;20.38;nan;95165.69;5064689;28;20328;-86
2022/07/15 00:06:37;;;;;;;9.68;3.05;;;;;;;21.51;nan;95343.00;5064859;28;20044;-86
2022/07/15 00:09:03;;;;;;;11.15;2.83;;;;;;;21.17;nan;95299.16;5063598;28;20040;-87
2022/07/15 00:11:29;;;;;;;11.73;2.90;;;;;;;20.67;nan;95233.97;5064376;28;20043;-87
2022/07/15 00:13:55;;;;;;;11.88;2.88;;;;;;;19.72;nan;95095.00;5064245;28;20036;-87
2022/07/15 00:16:20;;;;;;;14.77;3.17;;;;;;;21.29;nan;95321.84;5063247;28;20047;-87
2022/07/15 00:18:46;;;;;;;11.05;3.28;;;;;;;21.18;nan;95319.63;5064161;28;20032;-87
2022/07/15 00:21:11;;;;;;;6.20;2.42;;;;;;;21.21;nan;95331.63;5063836;28;20035;-87
2022/07/15 00:23:37;;;;;;;7.53;2.78;;;;;;;20.82;nan;95289.91;5067373;28;20043;-87
2022/07/15 00:26:02;;;;;;;12.68;3.20;;;;;;;20.72;nan;95306.50;5086489;28;20051;-86
2022/07/15 00:28:28;;;;;;;10.27;3.42;;;;;;;20.74;nan;95320.44;5067657;28;20518;-86
2022/07/15 00:30:55;;;;;;;5.40;2.30;;;;;;;20.90;nan;95342.16;5067196;28;20070;-86
2022/07/15 00:33:20;;;;;;;8.18;2.92;;;;;;;20.97;nan;95358.56;5067546;28;20100;-87
2022/07/15 00:35:46;;;;;;;9.00;2.95;;;;;;;20.30;nan;95254.63;5067750;28;20036;-86
2022/07/15 00:38:12;;;;;;;12.38;3.08;;;;;;;20.56;nan;95289.41;5067126;28;20740;-87
2022/07/15 00:40:43;;;;;;;7.85;3.30;;;;;;;20.76;nan;95359.41;5067447;28;20047;-87
2022/07/15 00:43:08;;;;;;;8.13;3.15;;;;;;;20.11;nan;95251.66;5067447;28;20043;-86
2022/07/15 00:45:34;;;;;;;8.85;3.45;;;;;;;20.11;nan;95257.06;5067597;28;20620;-87
2022/07/15 00:47:59;;;;;;;8.73;3.10;;;;;;;20.16;nan;95264.91;5067324;28;20085;-87
2022/07/15 00:50:27;;;;;;;10.55;3.20;;;;;;;20.41;nan;95304.31;5066947;28;20950;-87
2022/07/15 00:53:00;;;;;;;7.20;2.60;;;;;;;19.55;nan;95194.69;5067041;28;20126;-87
2022/07/15 00:55:29;;;;;;;14.50;2.90;;;;;;;19.73;nan;95222.25;5066504;28;20772;-86
2022/07/15 00:57:58;;;;;;;6.05;3.03;;;;;;;19.81;nan;95224.06;5067181;28;20410;-87
2022/07/15 01:00:24;;;;;;;5.38;2.97;;;;;;;18.44;nan;95008.97;5068435;28;20046;-87
2022/07/15 01:02:52;;;;;;;7.13;3.00;;;;;;;19.89;nan;95240.16;5066102;28;20821;-87
2022/07/15 01:05:20;;;;;;;7.35;2.97;;;;;;;20.20;nan;95300.84;5066236;28;20044;-86
2022/07/15 01:07:46;;;;;;;10.88;3.30;;;;;;;18.60;nan;95070.97;5066061;28;20040;-87
2022/07/15 01:10:11;;;;;;;4.93;2.75;;;;;;;19.97;nan;95285.03;5067457;28;20032;-86
2022/07/15 01:12:38;;;;;;;4.30;2.53;;;;;;;19.86;nan;95261.53;5085379;28;20048;-87
2022/07/15 01:15:05;;;;;;;7.38;2.83;;;;;;;20.38;nan;95334.59;5066367;28;20477;-87
2022/07/15 01:17:31;;;;;;;10.27;2.85;;;;;;;20.01;nan;95279.78;5066316;28;20414;-86
2022/07/15 01:19:57;;;;;;;8.20;2.85;;;;;;;19.96;nan;95277.28;5066702;28;20036;-86
2022/07/15 01:22:22;;;;;;;5.82;3.22;;;;;;;19.28;nan;95159.16;5084701;28;20104;-86
2022/07/15 01:24:48;;;;;;;8.18;2.70;;;;;;;19.62;nan;95211.88;5067400;28;20155;-86
2022/07/15 01:27:14;;;;;;;11.13;2.90;;;;;;;19.99;nan;95271.22;5086871;28;20724;-86
2022/07/15 01:29:39;;;;;;;7.68;3.17;;;;;;;19.18;nan;95215.19;5066519;28;20116;-87
2022/07/15 01:32:05;;;;;;;6.28;2.78;;;;;;;19.58;nan;95286.31;5084496;28;20145;-87
2022/07/15 01:34:30;;;;;;;9.38;3.17;;;;;;;20.08;nan;95319.63;5084178;28;20225;-87
2022/07/15 01:36:56;;;;;;;8.60;2.90;;;;;;;18.36;nan;95055.44;5065926;28;20128;-87
2022/07/15 01:39:21;;;;;;;7.32;3.10;;;;;;;20.09;nan;95310.44;5067951;28;20036;-86
2022/07/15 01:41:47;;;;;;;12.32;3.15;;;;;;;19.51;nan;95221.47;5086298;28;20040;-87
2022/07/15 01:44:14;;;;;;;7.95;3.08;;;;;;;19.52;nan;95219.59;5067392;28;20493;-87
2022/07/15 01:46:40;;;;;;;12.25;3.47;;;;;;;19.90;nan;95279.41;5067137;28;20036;-87
2022/07/15 01:49:26;;;;;;;5.57;2.90;;;;;;;20.02;nan;95287.53;5065406;28;20148;-87
2022/07/15 01:51:54;;;;;;;6.10;3.10;;;;;;;20.19;nan;95326.97;5065331;28;20119;-88
2022/07/15 01:54:22;;;;;;;7.32;3.00;;;;;;;19.46;nan;95207.38;5065764;28;20553;-88
2022/07/15 01:56:49;;;;;;;9.18;2.70;;;;;;;18.17;nan;95009.44;5065391;28;20789;-88
2022/07/15 01:59:14;;;;;;;7.07;2.72;;;;;;;19.27;nan;95184.47;5084298;28;20048;-88
2022/07/15 02:01:40;;;;;;;6.40;2.65;;;;;;;20.05;nan;95294.16;5065903;28;20172;-88
2022/07/15 02:04:05;;;;;;;6.32;2.80;;;;;;;20.20;nan;95330.47;5050953;28;20043;-88
2022/07/15 02:06:31;;;;;;;7.13;2.90;;;;;;;17.74;nan;94940.72;5044530;28;20036;-88
2022/07/15 02:08:56;;;;;;;8.05;3.13;;;;;;;18.44;nan;95074.19;5045158;28;20032;-88
2022/07/15 02:11:22;;;;;;;8.82;3.05;;;;;;;20.11;nan;95335.91;5045822;28;20040;-88
2022/07/15 02:13:48;;;;;;;10.15;3.28;;;;;;;19.17;nan;95216.31;5045065;28;20037;-88
2022/07/15 02:16:13;;;;;;;7.57;3.20;;;;;;;17.90;nan;95049.06;5046028;28;20037;-87
2022/07/15 02:18:39;;;;;;;8.55;2.70;;;;;;;18.09;nan;95075.47;5045025;28;20029;-88
2022/07/15 02:21:04;;;;;;;11.52;3.35;;;;;;;19.23;nan;95256.13;5045588;28;20044;-88
2022/07/15 02:23:30;;;;;;;6.03;2.85;;;;;;;17.72;nan;95045.66;5063258;28;20072;-88
2022/07/15 02:25:55;;;;;;;8.25;2.75;;;;;;;18.83;nan;95203.88;5064200;28;20597;-88
2022/07/15 02:28:21;;;;;;;9.98;3.17;;;;;;;19.45;nan;95294.59;5044631;28;20038;-88
2022/07/15 02:30:47;;;;;;;10.35;2.50;;;;;;;19.14;nan;95243.84;5045182;28;20100;-88
2022/07/15 02:33:13;;;;;;;4.53;2.40;;;;;;;19.59;nan;95312.09;5044716;28;20040;-87
2022/07/15 02:35:40;;;;;;;8.50;2.75;;;;;;;18.65;nan;95175.53;5045169;28;20114;-88
2022/07/15 02:38:06;;;;;;;6.47;2.65;;;;;;;16.25;nan;94802.53;5045003;28;20036;-88
2022/07/15 02:40:31;;;;;;;15.63;3.00;;;;;;;17.96;nan;95073.81;5064190;28;20043;-88
2022/07/15 02:43:00;;;;;;;8.68;2.92;;;;;;;19.71;nan;95321.34;5044845;28;20041;-88
2022/07/15 02:45:28;;;;;;;6.35;2.30;;;;;;;19.34;nan;95294.19;5045366;28;20585;-88
2022/07/15 02:47:54;;;;;;;11.10;3.30;;;;;;;19.50;nan;95330.19;5044881;28;20032;-88
2022/07/15 02:50:21;;;;;;;9.82;3.25;;;;;;;18.29;nan;95144.56;5044894;28;20473;-88
2022/07/15 02:52:46;;;;;;;9.77;3.05;;;;;;;19.35;nan;95308.41;5045312;28;20038;-88
2022/07/15 02:55:13;;;;;;;8.43;3.33;;;;;;;18.78;nan;95236.28;5045510;28;20824;-88
2022/07/15 02:57:39;;;;;;;10.52;2.83;;;;;;;19.14;nan;95311.06;5048697;28;20853;-88
2022/07/15 03:00:07;;;;;;;7.93;3.00;;;;;;;19.13;nan;95302.22;5045978;28;20063;-87
2022/07/15 03:02:33;;;;;;;8.77;2.88;;;;;;;16.68;nan;94928.28;5044633;28;20040;-88
2022/07/15 03:05:00;;;;;;;12.35;3.60;;;;;;;16.29;nan;94908.63;5045448;28;20114;-88
2022/07/15 03:07:27;;;;;;;5.97;3.22;;;;;;;19.15;nan;95308.03;5045981;28;20024;-87
2022/07/15 03:09:53;;;;;;;5.32;2.80;;;;;;;16.56;nan;94894.09;5063236;28;20120;-88
2022/07/15 03:12:18;;;;;;;13.25;3.60;;;;;;;17.77;nan;95092.19;5045542;28;20565;-88
2022/07/15 03:14:43;;;;;;;6.80;3.40;;;;;;;17.32;nan;95047.78;5045249;28;20033;-88
2022/07/15 03:17:09;;;;;;;13.50;3.15;;;;;;;18.94;nan;95287.59;5050059;28;20593;-88
2022/07/15 03:19:34;;;;;;;11.68;3.03;;;;;;;18.08;nan;95149.81;5052346;28;20032;-88
2022/07/15 03:22:00;;;;;;;9.77;3.20;;;;;;;19.16;nan;95308.81;5052243;28;20039;-88
2022/07/15 03:24:25;;;;;;;8.60;3.13;;;;;;;18.60;nan;95237.50;5068634;28;20098;-88
2022/07/15 03:26:51;;;;;;;12.63;3.50;;;;;;;18.86;nan;95279.25;5045197;28;20107;-88
2022/07/15 03:29:17;;;;;;;9.00;3.05;;;;;;;19.26;nan;95316.53;5064120;28;20025;-89
2022/07/15 03:31:43;;;;;;;11.18;3.63;;;;;;;18.49;nan;95197.53;5045603;28;20039;-88
2022/07/15 03:34:10;;;;;;;12.13;3.08;;;;;;;19.00;nan;95286.28;5064174;28;20029;-88
2022/07/15 03:36:37;;;;;;;11.73;3.80;;;;;;;18.60;nan;95222.16;5063419;28;20064;-88
2022/07/15 03:39:03;;;;;;;12.23;4.22;;;;;;;17.07;nan;94968.25;5044922;28;20123;-88
2022/07/15 03:41:29;;;;;;;20.10;5.03;;;;;;;19.09;nan;95263.63;5044921;28;20189;-88
2022/07/15 03:43:55;;;;;;;14.50;4.45;;;;;;;18.50;nan;95185.69;5044136;28;20040;-88
2022/07/15 03:46:20;;;;;;;25.73;4.78;;;;;;;17.33;nan;95016.41;5044910;28;20047;-88
2022/07/15 03:48:46;;;;;;;16.30;5.07;;;;;;;19.24;nan;95302.59;5045068;28;20528;-88
2022/07/15 03:51:11;;;;;;;14.63;4.35;;;;;;;19.06;nan;95266.19;5046335;28;20430;-88
2022/07/15 03:53:37;;;;;;;20.35;5.13;;;;;;;19.19;nan;95289.38;5046948;28;20498;-88
2022/07/15 03:56:03;;;;;;;12.45;4.05;;;;;;;17.93;nan;95106.63;5045327;28;20096;-88
2022/07/15 03:58:28;;;;;;;14.00;3.65;;;;;;;19.10;nan;95291.31;5048976;28;20057;-89
2022/07/15 04:00:53;;;;;;;23.50;4.10;;;;;;;18.76;nan;95212.47;5048702;28;20119;-88
2022/07/15 04:03:19;;;;;;;12.50;3.33;;;;;;;18.64;nan;95169.34;5048379;28;20037;-88
2022/07/15 04:05:44;;;;;;;12.40;3.50;;;;;;;17.82;nan;95057.13;5048445;28;20036;-88
2022/07/15 04:08:10;;;;;;;11.50;3.00;;;;;;;17.74;nan;95024.66;5048764;28;20033;-88
2022/07/15 04:10:36;;;;;;;12.70;3.40;;;;;;;19.16;nan;95277.34;5047779;28;20108;-88
2022/07/15 04:13:01;;;;;;;8.90;2.92;;;;;;;19.44;nan;95328.78;5047679;28;20070;-88
2022/07/15 04:15:28;;;;;;;9.00;3.13;;;;;;;18.88;nan;95239.41;5066899;28;20182;-88
2022/07/15 04:17:53;;;;;;;9.40;2.92;;;;;;;19.28;nan;95290.91;5066017;28;20036;-88
2022/07/15 04:20:19;;;;;;;11.23;3.05;;;;;;;18.28;nan;95124.19;5048061;28;20040;-88
2022/07/15 04:22:46;;;;;;;11.48;3.00;;;;;;;18.21;nan;95091.69;5048478;28;20036;-88
2022/07/15 04:25:16;;;;;;;13.10;3.50;;;;;;;17.30;nan;94999.09;5047367;28;20594;-88
2022/07/15 04:27:42;;;;;;;9.85;3.22;;;;;;;17.85;nan;95064.53;5078030;28;20309;-87
2022/07/15 04:30:08;;;;;;;13.05;3.20;;;;;;;18.34;nan;95195.38;5066493;28;20080;-88
2022/07/15 04:32:34;;;;;;;15.50;3.60;;;;;;;18.72;nan;95251.81;5067223;28;20424;-88
2022/07/15 04:35:01;;;;;;;13.18;3.30;;;;;;;18.91;nan;95248.72;5066027;28;20134;-88
2022/07/15 04:37:27;;;;;;;9.45;2.88;;;;;;;18.29;nan;95163.34;5067089;28;20055;-88
2022/07/15 04:39:54;;;;;;;6.68;2.88;;;;;;;18.88;nan;95234.03;5066695;28;20024;-88
2022/07/15 04:42:20;;;;;;;10.32;3.25;;;;;;;18.99;nan;95233.66;5067865;28;20027;-88
2022/07/15 04:44:46;;;;;;;11.70;2.80;;;;;;;18.15;nan;95068.84;5085350;28;20557;-88
2022/07/15 04:47:12;;;;;;;5.78;2.50;;;;;;;19.92;nan;95331.00;5066099;28;20115;-88
2022/07/15 04:52:22;;;;;;;8.23;3.35;;;;;;;17.68;nan;94950.88;5088398;28;20054;-88
2022/07/15 04:54:48;;;;;;;8.90;3.42;;;;;;;19.64;nan;95258.09;5067284;28;20582;-88
2022/07/15 04:57:13;;;;;;;11.10;3.05;;;;;;;16.28;nan;94737.69;5065761;28;20036;-88
2022/07/15 04:59:39;;;;;;;12.95;3.13;;;;;;;18.23;nan;95019.69;5049498;28;20056;-88
2022/07/15 05:02:05;;;;;;;10.02;3.10;;;;;;;18.60;nan;95061.00;5063989;28;20060;-89
2022/07/15 05:04:30;;;;;;;11.25;3.50;;;;;;;18.22;nan;94996.63;5064530;28;20062;-89
2022/07/15 05:06:56;;;;;;;11.13;2.75;;;;;;;20.21;nan;95302.41;5057973;28;20105;-89
2022/07/15 05:09:22;;;;;;;7.57;3.20;;;;;;;20.41;nan;95315.06;5049954;28;20813;-89
2022/07/15 05:11:47;;;;;;;8.07;2.95;;;;;;;18.51;nan;95025.34;5066061;28;20058;-88
2022/07/15 05:14:13;;;;;;;7.93;3.20;;;;;;;18.63;nan;95040.75;5066770;28;20039;-88
2022/07/15 05:16:38;;;;;;;19.25;3.65;;;;;;;19.16;nan;95121.44;5063452;28;20516;-88
2022/07/15 05:19:04;;;;;;;12.90;4.53;;;;;;;20.49;nan;95319.59;5055196;28;20082;-89
2022/07/15 05:21:29;;;;;;;12.15;3.88;;;;;;;20.02;nan;95274.06;5062683;28;20040;-88
2022/07/15 05:23:55;;;;;;;21.15;4.43;;;;;;;18.40;nan;95011.50;5066680;28;20039;-89
2022/07/15 05:26:21;;;;;;;14.70;4.18;;;;;;;20.61;nan;95335.00;5066548;28;20036;-88
2022/07/15 05:28:46;;;;;;;15.55;4.65;;;;;;;18.86;nan;95060.81;5063023;28;20036;-89
2022/07/15 05:31:12;;;;;;;16.38;4.85;;;;;;;18.63;nan;95017.38;5063250;28;20033;-88
2022/07/15 05:33:38;;;;;;;20.02;4.63;;;;;;;20.79;nan;95331.00;5066651;28;20063;-89
2022/07/15 05:36:04;;;;;;;13.52;4.78;;;;;;;20.80;nan;95321.81;5050161;28;20043;-88
2022/07/15 05:38:30;;;;;;;20.30;5.78;;;;;;;20.65;nan;95288.19;5082891;28;20044;-89
2022/07/15 05:40:56;;;;;;;32.15;4.85;;;;;;;20.97;nan;95321.59;5065576;28;20036;-88
2022/07/15 05:43:22;;;;;;;15.95;4.13;;;;;;;20.74;nan;95286.19;5048590;28;20041;-89
2022/07/15 05:45:47;;;;;;;31.33;5.07;;;;;;;20.77;nan;95293.59;5082272;28;20033;-88
2022/07/15 05:48:13;;;;;;;22.80;4.68;;;;;;;20.86;nan;95298.09;5062819;28;20028;-88
2022/07/15 05:50:38;;;;;;;37.65;6.15;;;;;;;21.25;nan;95327.16;5046429;28;20036;-89
2022/07/15 05:53:04;;;;;;;29.95;5.35;;;;;;;20.61;nan;95246.06;5051780;28;20052;-89
2022/07/15 05:55:29;;;;;;;21.20;4.78;;;;;;;20.65;nan;95228.91;5066740;28;20116;-89
2022/07/15 05:57:55;;;;;;;29.30;6.03;;;;;;;20.72;nan;95249.91;5059258;28;20047;-89
2022/07/15 06:00:21;;;;;;;32.00;5.93;;;;;;;21.19;nan;95306.94;5055250;28;20032;-88
2022/07/15 06:02:47;;;;;;;33.42;5.03;;;;;;;20.59;nan;95206.03;5063578;28;20411;-89
2022/07/15 06:05:12;;;;;;;17.15;4.53;;;;;;;20.88;nan;95253.53;5061922;28;20028;-89
2022/07/15 06:07:38;;;;;;;17.15;5.45;;;;;;;21.18;nan;95286.47;5058924;28;20486;-88
2022/07/15 06:10:05;;;;;;;14.30;4.22;;;;;;;19.31;nan;95012.50;5057718;28;20038;-88
2022/07/15 06:12:30;;;;;;;18.50;4.82;;;;;;;21.34;nan;95322.44;5057056;28;20032;-89
2022/07/15 06:14:56;;;;;;;22.85;5.38;;;;;;;20.68;nan;95228.22;5061447;28;20042;-89
2022/07/15 06:17:21;;;;;;;13.70;5.00;;;;;;;20.87;nan;95278.91;5054298;28;20042;-89
2022/07/15 06:19:47;;;;;;;15.40;5.05;;;;;;;21.23;nan;95313.22;5059528;28;20525;-88
2022/07/15 06:22:13;;;;;;;15.70;5.18;;;;;;;21.37;nan;95329.84;5073113;28;20048;-88
2022/07/15 06:24:39;;;;;;;16.25;4.60;;;;;;;19.60;nan;95019.66;5073652;28;20029;-89
2022/07/15 06:27:04;;;;;;;24.25;5.10;;;;;;;21.61;nan;95323.63;5049352;28;20032;-89
2022/07/15 06:29:32;;;;;;;12.32;5.78;;;;;;;21.57;nan;95306.56;5083759;28;20040;-88
2022/07/15 06:31:58;;;;;;;19.17;4.15;;;;;;;21.58;nan;95331.63;5058836;28;20501;-89
2022/07/15 06:34:23;;;;;;;16.05;5.28;;;;;;;21.20;nan;95265.34;5052066;28;20036;-89
2022/07/15 06:36:49;;;;;;;12.93;3.45;;;;;;;21.67;nan;95313.38;5061142;28;20032;-89
2022/07/15 06:39:14;;;;;;;12.63;4.53;;;;;;;20.02;nan;95045.25;5054656;28;20066;-89
2022/07/15 06:41:39;;;;;;;26.80;4.57;;;;;;;20.33;nan;95084.31;5055912;28;20047;-89
2022/07/15 06:44:05;;;;;;;15.82;4.68;;;;;;;21.17;nan;95202.09;5064950;28;20036;-88
2022/07/15 06:46:31;;;;;;;16.42;4.68;;;;;;;21.96;nan;95313.13;5053057;28;20077;-89
2022/07/15 06:48:56;;;;;;;14.77;3.78;;;;;;;21.28;nan;95198.94;5083323;28;20556;-89
2022/07/15 06:51:22;;;;;;;30.40;5.70;;;;;;;22.14;nan;95324.44;5084502;28;20036;-89
2022/07/15 06:53:47;;;;;;;9.65;3.95;;;;;;;21.77;nan;95253.53;5066830;28;20051;-89
2022/07/15 06:56:14;;;;;;;11.77;3.80;;;;;;;21.53;nan;95189.63;5064680;28;20031;-88
2022/07/15 06:58:39;;;;;;;18.70;3.65;;;;;;;22.27;nan;95302.47;5060588;28;20489;-89
2022/07/15 07:01:05;;;;;;;18.13;4.45;;;;;;;21.38;nan;95152.56;5080655;28;20040;-88
2022/07/15 07:03:30;;;;;;;12.73;4.22;;;;;;;22.12;nan;95273.47;5046228;28;20164;-89
2022/07/15 07:05:57;;;;;;;23.05;5.38;;;;;;;21.69;nan;95197.78;5063258;28;20050;-89
2022/07/15 07:08:23;;;;;;;21.70;4.75;;;;;;;22.44;nan;95316.75;5077537;28;20037;-88
2022/07/15 07:10:49;;;;;;;25.33;4.35;;;;;;;21.95;nan;95244.03;5052737;28;20069;-89
2022/07/15 07:13:14;;;;;;;12.60;4.53;;;;;;;20.52;nan;94997.56;5061446;28;20036;-89
2022/07/15 07:15:40;;;;;;;20.98;5.57;;;;;;;20.97;nan;95060.09;5061002;28;20037;-89
2022/07/15 07:18:05;;;;;;;15.45;3.97;;;;;;;22.28;nan;95268.88;5064351;28;20040;-89
2022/07/15 07:20:31;;;;;;;18.42;4.32;;;;;;;22.51;nan;95301.53;5051700;28;20036;-89
2022/07/15 07:22:57;;;;;;;17.15;4.25;;;;;;;22.64;nan;95304.97;5060537;28;20791;-89
2022/07/15 07:25:23;;;;;;;14.40;4.28;;;;;;;22.09;nan;95222.84;5063764;28;20046;-88
2022/07/15 07:27:49;;;;;;;18.08;4.72;;;;;;;22.02;nan;95203.75;5046444;28;20037;-89
2022/07/15 07:30:15;;;;;;;11.73;4.10;;;;;;;22.66;nan;95287.25;5064190;28;20031;-88
2022/07/15 07:32:40;;;;;;;17.55;5.22;;;;;;;22.76;nan;95283.28;5063518;28;20064;-89
2022/07/15 07:35:07;;;;;;;19.77;4.53;;;;;;;22.37;nan;95206.59;5064954;28;20103;-89
2022/07/15 07:37:37;;;;;;;21.75;3.92;;;;;;;23.03;nan;95295.97;5065014;28;20060;-88
2022/07/15 07:40:05;;;;;;;13.77;3.42;;;;;;;22.99;nan;95280.75;5083048;28;20549;-89
2022/07/15 07:42:30;;;;;;;17.23;4.00;;;;;;;22.77;nan;95238.13;5064472;28;20127;-88
2022/07/15 07:44:58;;;;;;;16.70;3.78;;;;;;;23.20;nan;95294.78;5061289;28;20178;-89
2022/07/15 07:47:23;;;;;;;11.98;3.10;;;;;;;23.05;nan;95284.75;5062127;28;20630;-88
2022/07/15 07:49:49;;;;;;;12.40;4.07;;;;;;;22.84;nan;95249.09;5064303;28;20074;-89
2022/07/15 07:52:17;;;;;;;11.02;4.03;;;;;;;22.52;nan;95194.22;5063274;28;20104;-89
2022/07/15 07:54:43;;;;;;;11.35;3.00;;;;;;;23.08;nan;95309.22;5058915;28;20047;-89
2022/07/15 07:57:10;;;;;;;6.15;3.13;;;;;;;23.18;nan;95301.72;5053820;28;20028;-89
2022/07/15 07:59:36;;;;;;;17.55;3.85;;;;;;;23.20;nan;95302.91;5076584;28;20061;-89
2022/07/15 08:02:03;;;;;;;25.77;4.00;;;;;;;22.93;nan;95255.13;5072492;28;20043;-89
2022/07/15 08:04:29;;;;;;;9.65;3.70;;;;;;;21.25;nan;94981.13;5053823;28;20041;-89
2022/07/15 08:06:55;;;;;;;16.90;3.50;;;;;;;22.83;nan;95194.22;5062329;28;20043;-89
2022/07/15 08:09:20;;;;;;;13.05;3.58;;;;;;;22.68;nan;95171.47;5046259;28;20063;-89
2022/07/15 08:11:45;;;;;;;10.80;3.30;;;;;;;21.69;nan;95020.44;5063075;28;20490;-89
2022/07/15 08:14:11;;;;;;;11.70;3.17;;;;;;;22.20;nan;95090.78;5063221;28;20085;-89
2022/07/15 08:16:37;;;;;;;14.60;3.25;;;;;;;23.35;nan;95252.59;5061287;28;20597;-89
2022/07/15 08:19:02;;;;;;;8.40;2.85;;;;;;;23.35;nan;95226.34;5053959;28;20036;-88
2022/07/15 08:21:28;;;;;;;11.20;3.35;;;;;;;22.44;nan;95087.88;5069020;22;20086;-83
2022/07/15 08:23:54;;;;;;;9.85;2.88;;;;;;;23.37;nan;95215.16;5013241;28;20147;-83
2022/07/15 08:26:23;;;;;;;6.68;2.80;;;;;;;23.49;nan;95209.66;5047787;28;20028;-84
2022/07/15 08:28:49;;;;;;;12.05;3.40;;;;;;;23.29;nan;95154.69;5022367;28;20041;-83
2022/07/15 08:31:16;;;;;;;7.55;2.40;;;;;;;23.99;nan;95262.13;5020263;28;20044;-84
2022/07/15 08:33:42;;;;;;;5.32;2.42;;;;;;;24.10;nan;95277.47;5033303;28;20411;-83
2022/07/15 08:36:08;;;;;;;9.02;2.55;;;;;;;23.68;nan;95201.56;5041189;28;20037;-83
2022/07/15 08:38:33;;;;;;;16.90;4.30;;;;;;;24.20;nan;95279.63;5020766;28;20036;-83
2022/07/15 08:40:59;;;;;;;11.00;2.95;;;;;;;22.49;nan;95005.78;5043542;28;20161;-83
2022/07/15 08:45:44;;;;;;;7.38;3.00;;;;;;;23.94;39.65;95243.47;5104243;27;20404;-85
2022/07/15 08:48:10;;;;;;;10.32;2.85;;;;;;;23.62;39.92;95162.38;5076521;28;20036;-85
2022/07/15 08:50:36;;;;;;;15.93;3.38;;;;;;;24.33;39.76;95268.66;5058306;28;20127;-85
2022/07/15 08:53:03;;;;;;;13.63;2.83;;;;;;;24.36;39.83;95265.19;5057043;28;20119;-85
2022/07/15 08:55:29;;;;;;;12.68;2.60;;;;;;;24.40;38.95;95266.84;5058737;28;20119;-85
2022/07/15 08:57:54;;;;;;;10.15;2.78;;;;;;;24.47;39.11;95255.34;5075930;28;20036;-85
2022/07/15 09:00:22;;;;;;;6.38;2.50;;;;;;;24.23;40.32;95188.72;5055979;28;20572;-86
2022/07/15 09:02:47;;;;;;;9.77;2.67;;;;;;;24.16;39.45;95183.13;5055521;28;20124;-86
2022/07/15 09:05:32;;;;;;;23.17;4.00;;;;;;;24.56;38.48;95226.84;5075661;28;20161;-86
2022/07/15 09:08:10;;;;;;;9.98;2.78;;;;;;;24.86;39.07;95256.03;5054636;28;20088;-86
2022/07/15 09:10:41;;;;;;;9.38;2.60;;;;;;;24.93;38.75;95254.25;5056721;28;20036;-86
2022/07/15 09:13:08;;;;;;;9.20;2.20;;;;;;;25.06;38.83;95252.13;5072145;28;20073;-87
2022/07/15 09:15:37;;;;;;;6.50;2.05;;;;;;;24.98;38.80;95239.59;5056286;28;20040;-86
2022/07/15 09:18:15;;;;;;;8.07;2.47;;;;;;;25.11;37.93;95257.22;5055883;28;20682;-86
2022/07/15 09:20:43;;;;;;;10.30;2.20;;;;;;;24.96;36.49;95231.03;5054639;28;20590;-85
2022/07/15 09:23:10;;;;;;;7.28;2.33;;;;;;;25.12;36.36;95247.16;5056245;28;20063;-85
2022/07/15 09:25:38;;;;;;;4.82;2.22;;;;;;;24.33;36.56;95116.88;5074996;28;20039;-86
2022/07/15 09:28:06;;;;;;;4.78;2.20;;;;;;;24.50;35.92;95135.34;5061187;28;20343;-86
2022/07/15 09:33:39;;;;;;;7.40;1.95;;;;;;;25.32;34.95;95243.22;5058673;28;20106;-86
2022/07/15 09:36:18;;;;;;;;;;;;;;;25.34;35.93;95249.81;5056878;28;20104;-85
2022/07/15 09:38:56;;;;;;;7.25;2.05;;;;;;;24.18;35.14;95067.81;5055260;28;19955;-85
2022/07/15 09:41:28;;;;;;;7.40;2.50;;;;;;;25.34;35.22;95247.13;5074677;28;20036;-85
2022/07/15 09:44:02;;;;;;;8.65;2.15;;;;;;;25.40;34.57;95249.53;5049755;28;20416;-85
2022/07/15 09:46:41;;;;;;;8.15;2.10;;;;;;;25.47;34.79;95236.84;5054117;28;20084;-86
2022/07/15 09:49:07;;;;;;;6.72;2.20;;;;;;;25.30;33.86;95213.72;5053425;28;20492;-86
2022/07/15 09:51:44;;;;;;;5.68;1.75;;;;;;;25.70;33.36;95185.19;5073832;28;20456;-86
2022/07/15 09:54:12;;;;;;;6.63;2.45;;;;;;;26.38;32.13;95173.94;5055419;28;20480;-85
2022/07/15 09:56:38;;;;;;;6.03;1.80;;;;;;;26.05;31.11;95027.19;5062040;28;20274;-86
2022/07/15 09:59:04;;;;;;;5.50;1.80;;;;;;;28.22;29.81;95225.34;5031712;28;20071;-86
2022/07/15 10:01:30;;;;;;;11.00;2.63;;;;;;;29.18;27.90;95237.16;5039599;28;20227;-85
2022/07/15 10:03:56;;;;;;;2.95;1.55;;;;;;;29.66;26.65;95193.00;5033650;28;20044;-85
2022/07/15 10:06:25;;;;;;;6.97;2.00;;;;;;;29.86;25.57;95109.34;5059645;28;20735;-86
2022/07/15 10:08:52;;;;;;;5.93;1.67;;;;;;;31.31;24.51;95176.75;5058805;28;20059;-85
2022/07/15 10:11:18;;;;;;;6.13;1.50;;;;;;;32.48;23.18;95233.03;5058228;28;20049;-85
2022/07/15 10:14:46;;;;;;;3.15;1.30;;;;;;;33.38;22.61;95225.00;5039729;28;20098;-85
2022/07/15 10:17:24;;;;;;;5.05;1.48;;;;;;;33.89;22.24;95226.44;4947592;28;20077;-85
2022/07/15 10:20:08;;;;;;;5.93;1.33;;;;;;;34.01;21.41;95178.28;4972462;28;20041;-86
2022/07/15 10:22:52;;;;;;;5.70;1.42;;;;;;;34.69;20.42;95205.91;5048263;28;20063;-85
2022/07/15 10:25:24;;;;;;;5.28;1.55;;;;;;;34.44;19.75;95125.84;5041099;28;20834;-87
2022/07/15 10:28:30;;;;;;;4.47;1.45;;;;;;;35.48;21.59;95213.09;5038172;28;20461;-85
2022/07/15 10:31:17;;;;;;;7.68;1.45;;;;;;;35.97;20.70;95206.25;5000997;28;20053;-86
2022/07/15 10:33:43;;;;;;;4.28;1.30;;;;;;;36.15;19.94;95178.16;5046411;28;20044;-85
2022/07/15 10:36:09;;;;;;;4.40;1.50;;;;;;;36.28;20.42;95194.75;5038900;28;20036;-85
2022/07/15 10:38:38;;;;;;;2.38;1.20;;;;;;;36.44;19.50;95204.94;5061059;28;20047;-86
2022/07/15 10:41:09;;;;;;;6.68;1.73;;;;;;;36.34;19.50;95181.97;5041884;28;20051;-87
2022/07/15 10:43:52;;;;;;;5.60;1.55;;;;;;;36.11;19.64;95136.06;5039643;28;20138;-86
2022/07/15 10:46:17;;;;;;;1.73;1.52;;;;;;;36.28;18.74;95194.75;5041359;28;20120;-86
2022/07/15 10:48:43;;;;;;;2.70;1.35;;;;;;;36.32;19.14;95195.41;5040563;28;20040;-86
2022/07/15 10:51:08;;;;;;;2.15;1.30;;;;;;;36.28;19.12;95173.44;5040649;28;20549;-86
2022/07/15 10:53:43;;;;;;;6.43;1.50;;;;;;;36.51;19.43;95185.41;5053143;28;20109;-86
2022/07/15 10:56:41;;;;;;;3.20;1.38;;;;;;;36.38;19.13;95185.41;5036367;28;20032;-85
2022/07/15 10:59:15;;;;;;;6.10;1.88;;;;;;;36.50;19.84;95186.59;5041028;28;20521;-86
2022/07/15 11:01:43;;;;;;;4.53;2.03;;;;;;;36.27;20.00;95163.63;5063357;28;20671;-85
2022/07/15 11:04:18;;;;;;;4.28;1.27;;;;;;;36.31;18.87;95117.34;5050267;28;20118;-86
2022/07/15 11:07:09;;;;;;;3.55;1.85;;;;;;;36.82;17.54;95191.16;5035828;28;20043;-86
2022/07/15 11:09:47;;;;;;;6.22;1.67;;;;;;;36.82;16.71;95180.91;5052333;28;20509;-86
2022/07/15 11:12:32;;;;;;;11.63;3.20;;;;;;;36.15;17.95;95134.00;5052883;28;20032;-86
2022/07/15 11:15:04;;;;;;;8.90;3.92;;;;;;;36.34;18.02;95170.91;5040339;28;20374;-86
2022/07/15 11:17:30;;;;;;;4.43;2.17;;;;;;;36.16;17.37;95173.41;5041146;28;20481;-85
2022/07/15 11:19:58;;;;;;;3.53;2.40;;;;;;;35.46;18.16;95138.31;5040498;28;20139;-86
2022/07/15 11:22:26;;;;;;;8.43;2.95;;;;;;;35.07;19.14;95075.91;5040670;28;20067;-87
2022/07/15 11:24:52;;;;;;;6.88;3.15;;;;;;;35.26;18.41;95080.53;5041126;28;20063;-86
2022/07/15 11:27:19;;;;;;;15.45;4.18;;;;;;;35.66;18.65;95111.34;5056373;28;20040;-86
2022/07/15 11:29:49;;;;;;;5.65;2.50;;;;;;;35.97;18.63;95151.06;5042496;28;20181;-87
2022/07/15 11:32:16;;;;;;;12.05;2.75;;;;;;;36.31;17.84;95167.06;5035699;28;20400;-86
2022/07/15 11:34:45;;;;;;;3.53;2.33;;;;;;;36.34;19.10;95151.59;5049480;28;20036;-86
2022/07/15 11:37:12;;;;;;;4.63;2.08;;;;;;;36.55;19.17;95167.50;5050748;28;20045;-86
2022/07/15 11:39:39;;;;;;;3.60;2.42;;;;;;;36.15;18.45;95072.47;5040525;28;20036;-86
2022/07/15 11:44:49;;;;;;;12.15;2.70;;;;;;;36.51;17.40;95124.63;5057687;28;20105;-85
2022/07/15 11:47:15;;;;;;;4.35;2.80;;;;;;;36.01;17.07;95045.31;5040355;28;20202;-85
2022/07/15 11:49:44;;;;;;;7.13;2.20;;;;;;;36.60;16.93;95139.34;5041400;28;20135;-86
2022/07/15 11:52:23;;;;;;;5.95;2.15;;;;;;;36.68;17.53;95151.72;5040875;28;20413;-85
2022/07/15 11:54:49;;;;;;;6.90;2.15;;;;;;;37.00;17.30;95156.19;5027148;28;20051;-86